Terminal Aerodrome Forecast
Issued by NWS

Home | Current Version | Previous Version | Graphics & Text | Print | Product List | Glossary On
Versions: 1 2 3 4 5 6 7 8 9 10 11 12 13 14 15
000
FTUS43 KIWX 280520
TAFSBN
TAF
KSBN 280520Z 2806/2906 23004KT P6SM FEW040 BKN120
     FM280800 23003KT 4SM BR FEW010 BKN120
     FM281300 VRB03KT P6SM SCT025 BKN120
     FM281900 32006KT P6SM SCT040 BKN150
     FM290000 36003KT P6SM SCT200=

USA.gov is the U.S. government's official web portal to all federal, state and local government web resources and services.